createdAt,value
2023-05-05T00:00:24.606Z,101705.33
2023-05-05T00:03:12.291Z,101700.11
2023-05-05T00:05:40.779Z,101702.21
2023-05-05T00:08:09.326Z,101699.77
2023-05-05T00:10:41.424Z,101700.30
2023-05-05T00:13:10.068Z,101700.83
2023-05-05T00:15:38.865Z,101701.88
2023-05-05T00:18:07.818Z,101701.35
2023-05-05T00:20:36.957Z,101699.10
2023-05-05T00:23:06.240Z,101696.48
2023-05-05T00:25:34.635Z,101696.84
2023-05-05T00:28:03.137Z,101697.20
2023-05-05T00:30:32.033Z,101693.02
2023-05-05T00:33:00.774Z,101689.86
2023-05-05T00:35:29.239Z,101691.77
2023-05-05T00:37:57.667Z,101685.14
2023-05-05T00:40:26.937Z,101690.17
2023-05-05T00:42:55.361Z,101686.01
2023-05-05T00:45:23.732Z,101685.64
2023-05-05T00:47:57.799Z,101681.64
2023-05-05T00:50:31.353Z,101685.12
2023-05-05T00:53:04.173Z,101682.16
2023-05-05T00:55:34.416Z,101685.13
2023-05-05T00:58:06.783Z,101676.91
2023-05-05T01:00:36.586Z,101678.16
2023-05-05T01:03:05.778Z,101680.95
2023-05-05T01:05:47.893Z,101680.23
2023-05-05T01:08:51.451Z,101678.14
2023-05-05T01:11:38.958Z,101674.46
2023-05-05T01:14:18.595Z,101675.17
2023-05-05T01:17:00.263Z,101676.73
2023-05-05T01:19:37.570Z,101678.66
2023-05-05T01:22:09.449Z,101675.69
2023-05-05T01:24:45.924Z,101670.10
2023-05-05T01:27:30.770Z,101673.61
2023-05-05T01:30:29.834Z,101674.30
2023-05-05T01:33:08.708Z,101669.58
2023-05-05T01:35:42.599Z,101665.05
2023-05-05T01:38:21.973Z,101668.54
2023-05-05T01:41:02.032Z,101662.42
2023-05-05T01:43:34.866Z,101668.18
2023-05-05T01:46:04.183Z,101666.62
2023-05-05T01:48:33.676Z,101661.55
2023-05-05T01:51:03.968Z,101664.53
2023-05-05T01:53:33.136Z,101660.69
2023-05-05T01:56:03.015Z,101661.38
2023-05-05T01:58:33.043Z,101660.17
2023-05-05T02:01:02.412Z,101661.91
2023-05-05T02:03:34.197Z,101661.73
2023-05-05T02:06:03.957Z,101664.02
2023-05-05T02:08:35.186Z,101665.40
2023-05-05T02:11:04.840Z,101670.45
2023-05-05T02:13:33.935Z,101670.99
2023-05-05T02:16:03.578Z,101669.94
2023-05-05T02:18:36.078Z,101669.08
2023-05-05T02:21:05.126Z,101670.11
2023-05-05T02:23:34.318Z,101666.10
2023-05-05T02:26:08.445Z,101669.23
2023-05-05T02:28:36.753Z,101667.14
2023-05-05T02:31:07.685Z,101665.92
2023-05-05T02:33:39.522Z,101668.52
2023-05-05T02:36:22.232Z,101666.97
2023-05-05T02:39:03.629Z,101671.67
2023-05-05T02:41:38.431Z,101669.23
2023-05-05T02:44:13.872Z,101668.53
2023-05-05T02:46:43.377Z,101672.20
2023-05-05T02:49:11.780Z,101675.52
2023-05-05T02:51:40.598Z,101675.00
2023-05-05T02:54:14.180Z,101678.48
2023-05-05T02:56:52.201Z,101677.27
2023-05-05T03:00:02.510Z,101676.21
2023-05-05T03:02:40.613Z,101684.24
2023-05-05T03:05:41.392Z,101688.61
2023-05-05T03:08:17.209Z,101692.80
2023-05-05T03:11:19.118Z,101696.29
2023-05-05T03:13:52.420Z,101692.80
2023-05-05T03:16:24.974Z,101697.16
2023-05-05T03:18:55.629Z,101698.39
2023-05-05T03:21:24.109Z,101698.73
2023-05-05T03:23:52.589Z,101701.02
2023-05-05T03:26:22.162Z,101703.98
2023-05-05T03:28:51.308Z,101700.32
2023-05-05T03:31:24.076Z,101705.55
2023-05-05T03:33:55.622Z,101702.41
2023-05-05T03:36:29.403Z,101709.92
2023-05-05T03:38:58.978Z,101715.54
2023-05-05T03:41:28.900Z,101714.66
2023-05-05T03:43:57.580Z,101715.34
2023-05-05T03:46:26.389Z,101718.14
2023-05-05T03:48:57.380Z,101714.47
2023-05-05T03:51:27.127Z,101714.45
2023-05-05T03:53:55.774Z,101713.91
2023-05-05T03:56:24.401Z,101716.19
2023-05-05T03:58:53.540Z,101715.30
2023-05-05T04:01:22.245Z,101714.79
2023-05-05T04:03:50.767Z,101716.35
2023-05-05T04:06:19.263Z,101718.25
2023-05-05T04:08:47.780Z,101722.27
2023-05-05T04:11:16.809Z,101724.86
2023-05-05T04:13:45.148Z,101728.87
2023-05-05T04:16:14.107Z,101729.74
2023-05-05T04:18:42.743Z,101729.52
2023-05-05T04:21:11.344Z,101727.02
2023-05-05T04:23:40.014Z,101731.55
2023-05-05T04:26:08.764Z,101728.02
2023-05-05T04:28:37.552Z,101728.34
2023-05-05T04:31:06.300Z,101730.79
2023-05-05T04:33:36.912Z,101731.96
2023-05-05T04:36:05.561Z,101730.70
2023-05-05T04:38:34.222Z,101729.61
2023-05-05T04:41:06.480Z,101734.52
2023-05-05T04:43:35.200Z,101736.79
2023-05-05T04:46:04.290Z,101737.34
2023-05-05T04:48:34.516Z,101735.80
2023-05-05T04:51:07.269Z,101738.27
2023-05-05T04:53:36.358Z,101737.96
2023-05-05T04:56:04.754Z,101736.27
2023-05-05T04:58:33.635Z,101739.73
2023-05-05T05:01:01.952Z,101738.79
2023-05-05T05:03:32.120Z,101736.59
2023-05-05T05:06:00.709Z,101738.85
2023-05-05T05:08:29.009Z,101741.70
2023-05-05T05:10:57.362Z,101742.23
2023-05-05T05:13:26.297Z,101739.63
2023-05-05T05:15:54.817Z,101738.73
2023-05-05T05:18:23.240Z,101738.35
2023-05-05T05:20:52.079Z,101739.02
2023-05-05T05:23:21.194Z,101744.35
2023-05-05T05:25:49.690Z,101748.95
2023-05-05T05:28:21.189Z,101750.48
2023-05-05T05:30:53.115Z,101752.37
2023-05-05T05:33:21.668Z,101753.22
2023-05-05T05:35:50.729Z,101751.83
2023-05-05T05:38:19.769Z,101751.42
2023-05-05T05:40:48.544Z,101750.31
2023-05-05T05:43:17.057Z,101746.65
2023-05-05T05:45:46.097Z,101751.35
2023-05-05T05:48:14.501Z,101750.80
2023-05-05T05:50:43.437Z,101752.83
2023-05-05T05:53:11.821Z,101751.84
2023-05-05T05:55:41.275Z,101750.84
2023-05-05T05:58:09.876Z,101745.59
2023-05-05T06:00:38.169Z,101744.84
2023-05-05T06:03:07.774Z,101742.79
2023-05-05T06:05:38.053Z,101739.83
2023-05-05T06:08:06.400Z,101739.53
2023-05-05T06:10:37.262Z,101736.00
2023-05-05T06:13:08.983Z,101738.17
2023-05-05T06:15:38.969Z,101737.36
2023-05-05T06:18:07.735Z,101738.91
2023-05-05T06:20:41.350Z,101736.46
2023-05-05T06:23:11.936Z,101738.86
2023-05-05T06:25:43.923Z,101735.48
2023-05-05T06:28:12.320Z,101733.08
2023-05-05T06:30:40.870Z,101736.36
2023-05-05T06:33:09.191Z,101734.04
2023-05-05T06:35:38.437Z,101733.27
2023-05-05T06:38:12.202Z,101738.45
2023-05-05T06:40:43.431Z,101736.69
2023-05-05T06:43:20.034Z,101732.91
2023-05-05T06:46:05.685Z,101733.67
2023-05-05T06:48:38.250Z,101731.37
2023-05-05T06:51:07.409Z,101726.48
2023-05-05T06:53:35.836Z,101727.02
2023-05-05T06:56:04.324Z,101721.73
2023-05-05T06:58:32.808Z,101724.02
2023-05-05T07:01:01.384Z,101721.23
2023-05-05T07:03:30.370Z,101720.27
2023-05-05T07:05:59.416Z,101716.83
2023-05-05T07:08:32.177Z,101719.09
2023-05-05T07:11:10.209Z,101717.38
2023-05-05T07:13:56.527Z,101714.39
2023-05-05T07:16:35.021Z,101715.91
2023-05-05T07:19:06.443Z,101718.81
2023-05-05T07:21:35.620Z,101717.92
2023-05-05T07:24:04.918Z,101717.11
2023-05-05T07:26:34.736Z,101721.33
2023-05-05T07:29:05.799Z,101719.25
2023-05-05T07:31:34.432Z,101716.34
2023-05-05T07:34:03.239Z,101719.01
2023-05-05T07:36:32.474Z,101715.79
2023-05-05T07:39:01.318Z,101720.50
2023-05-05T07:41:30.200Z,101717.64
2023-05-05T07:43:58.613Z,101716.28
2023-05-05T07:46:26.827Z,101712.01
2023-05-05T07:48:55.309Z,101711.05
2023-05-05T07:51:23.771Z,101706.19
2023-05-05T07:53:52.125Z,101706.63
2023-05-05T07:56:21.798Z,101710.20
2023-05-05T07:58:50.251Z,101709.70
2023-05-05T08:01:18.806Z,101707.96
2023-05-05T08:03:46.999Z,101708.77
2023-05-05T08:06:22.430Z,101710.73
2023-05-05T08:08:53.592Z,101706.56
2023-05-05T08:11:22.400Z,101703.58
2023-05-05T08:13:52.220Z,101701.98
2023-05-05T08:16:20.973Z,101699.38
2023-05-05T08:18:49.329Z,101708.16
2023-05-05T08:21:18.637Z,101702.76
2023-05-05T08:23:46.882Z,101700.32
2023-05-05T08:26:15.151Z,101699.14
2023-05-05T08:28:43.671Z,101699.94
2023-05-05T08:31:11.880Z,101694.64
2023-05-05T08:33:42.017Z,101693.55
2023-05-05T08:36:10.156Z,101688.97
2023-05-05T08:38:38.353Z,101689.80
2023-05-05T08:41:09.299Z,101694.36
2023-05-05T08:43:37.645Z,101686.30
2023-05-05T08:46:06.715Z,101689.61
2023-05-05T08:48:37.828Z,101690.75
2023-05-05T08:51:08.775Z,101687.42
2023-05-05T08:53:54.587Z,101687.46
2023-05-05T08:56:34.073Z,101687.66
2023-05-05T08:59:03.374Z,101689.45
2023-05-05T09:01:33.659Z,101685.55
2023-05-05T09:04:05.456Z,101691.55
2023-05-05T09:06:34.434Z,101686.64
2023-05-05T09:09:03.083Z,101684.53
2023-05-05T09:11:34.831Z,101678.95
2023-05-05T09:14:05.247Z,101677.84
2023-05-05T09:16:33.564Z,101675.48
2023-05-05T09:19:05.519Z,101673.50
2023-05-05T09:21:33.750Z,101673.56
2023-05-05T09:24:15.064Z,101674.70
2023-05-05T09:26:47.872Z,101677.38
2023-05-05T09:29:23.476Z,101679.95
2023-05-05T09:32:11.268Z,101678.22
2023-05-05T09:34:39.917Z,101671.42
2023-05-05T09:37:09.573Z,101665.80
2023-05-05T09:39:54.537Z,101668.00
2023-05-05T09:42:22.849Z,101672.23
2023-05-05T09:44:51.684Z,101667.65
2023-05-05T09:47:29.547Z,101670.91
2023-05-05T09:49:58.997Z,101670.38
2023-05-05T09:52:28.050Z,101667.58
2023-05-05T09:54:58.000Z,101666.90
2023-05-05T09:57:27.926Z,101664.19
2023-05-05T10:00:04.424Z,101663.30
2023-05-05T10:02:38.963Z,101663.21
2023-05-05T10:05:07.488Z,101661.61
2023-05-05T10:07:37.061Z,101660.07
2023-05-05T10:10:07.940Z,101654.31
2023-05-05T10:12:37.821Z,101653.35
2023-05-05T10:15:08.343Z,101651.09
2023-05-05T10:17:38.839Z,101647.52
2023-05-05T10:20:10.693Z,101646.95
2023-05-05T10:22:42.606Z,101649.48
2023-05-05T10:25:13.944Z,101648.73
2023-05-05T10:27:50.881Z,101646.59
2023-05-05T10:30:32.042Z,101648.14
2023-05-05T10:33:31.088Z,101644.59
2023-05-05T10:36:05.341Z,101641.35
2023-05-05T10:38:34.377Z,101636.23
2023-05-05T10:41:04.359Z,101634.35
2023-05-05T10:43:33.551Z,101634.52
2023-05-05T10:46:02.896Z,101636.92
2023-05-05T10:49:05.177Z,101626.20
2023-05-05T10:51:46.708Z,101631.80
2023-05-05T10:54:32.814Z,101633.42
2023-05-05T10:57:02.920Z,101634.47
2023-05-05T10:59:39.419Z,101633.64
2023-05-05T11:02:23.032Z,101626.50
2023-05-05T11:05:08.486Z,101622.65
2023-05-05T11:07:37.996Z,101613.58
2023-05-05T11:10:14.618Z,101617.20
2023-05-05T11:12:52.696Z,101610.89
2023-05-05T11:15:24.274Z,101602.52
2023-05-05T11:18:05.851Z,101601.29
2023-05-05T11:20:42.182Z,101601.85
2023-05-05T11:23:10.494Z,101602.98
2023-05-05T11:25:41.521Z,101601.10
2023-05-05T11:28:18.302Z,101599.95
2023-05-05T11:30:59.514Z,101598.20
2023-05-05T11:33:31.927Z,101596.58
2023-05-05T11:36:18.350Z,101596.59
2023-05-05T11:38:52.943Z,101594.65
2023-05-05T11:41:36.245Z,101594.83
2023-05-05T11:44:15.119Z,101592.91
2023-05-05T11:46:54.342Z,101587.84
2023-05-05T11:49:31.821Z,101584.09
2023-05-05T11:55:37.106Z,101583.01
2023-05-05T11:58:18.736Z,101581.11
2023-05-05T12:00:48.245Z,101578.16
2023-05-05T12:03:16.577Z,101576.73
2023-05-05T12:05:44.918Z,101574.84
2023-05-05T12:08:14.823Z,101571.91
2023-05-05T12:10:43.313Z,101569.21
2023-05-05T12:13:19.373Z,101571.17
2023-05-05T12:15:47.829Z,101568.23
2023-05-05T12:18:22.713Z,101563.47
2023-05-05T12:20:53.790Z,101561.34
2023-05-05T12:23:22.155Z,101560.67
2023-05-05T12:25:50.425Z,101559.07
2023-05-05T12:28:18.777Z,101555.41
2023-05-05T12:30:59.968Z,101553.09
2023-05-05T12:33:28.500Z,101550.77
2023-05-05T12:35:56.743Z,101550.56
2023-05-05T12:38:24.927Z,101550.66
2023-05-05T12:40:55.600Z,101551.80
2023-05-05T12:43:30.074Z,101554.73
2023-05-05T12:46:03.845Z,101549.98
2023-05-05T12:48:33.422Z,101551.66
2023-05-05T12:51:18.707Z,101548.42
2023-05-05T12:53:48.653Z,101550.84
2023-05-05T12:56:33.438Z,101550.17
2023-05-05T12:59:03.505Z,101548.33
2023-05-05T13:01:32.118Z,101549.06
2023-05-05T13:04:24.716Z,101547.85
2023-05-05T13:07:15.853Z,101544.78
2023-05-05T13:09:44.533Z,101541.25
2023-05-05T13:12:16.667Z,101539.91
2023-05-05T13:14:46.892Z,101536.01
2023-05-05T13:17:15.257Z,101533.73
2023-05-05T13:19:46.619Z,101533.00
2023-05-05T13:22:15.205Z,101536.31
2023-05-05T13:24:52.355Z,101535.09
2023-05-05T13:27:22.427Z,101534.17
2023-05-05T13:29:51.019Z,101532.36
2023-05-05T13:32:38.513Z,101527.45
2023-05-05T13:35:20.390Z,101532.92
2023-05-05T13:38:01.598Z,101534.47
2023-05-05T13:40:43.292Z,101533.73
2023-05-05T13:43:19.174Z,101528.07
2023-05-05T13:46:08.690Z,101527.04
2023-05-05T13:48:56.018Z,101528.25
2023-05-05T13:51:32.779Z,101522.83
2023-05-05T13:54:08.225Z,101521.33
2023-05-05T13:56:38.904Z,101521.98
2023-05-05T13:59:09.503Z,101519.38
2023-05-05T14:01:38.894Z,101522.83
2023-05-05T14:04:09.569Z,101522.08
2023-05-05T14:06:41.413Z,101520.83
2023-05-05T14:09:13.405Z,101518.71
2023-05-05T14:11:51.694Z,101518.96
2023-05-05T14:14:19.972Z,101516.84
2023-05-05T14:16:50.234Z,101514.55
2023-05-05T14:19:19.194Z,101511.77
2023-05-05T14:21:47.646Z,101509.03
2023-05-05T14:24:15.903Z,101507.13
2023-05-05T14:26:44.300Z,101505.73
2023-05-05T14:29:12.896Z,101505.08
2023-05-05T14:31:41.263Z,101501.14
2023-05-05T14:34:09.529Z,101499.05
2023-05-05T14:36:37.867Z,101501.11
2023-05-05T14:39:06.160Z,101501.41
2023-05-05T14:41:34.498Z,101501.08
2023-05-05T14:44:03.007Z,101500.96
2023-05-05T14:46:32.211Z,101496.99
2023-05-05T14:49:01.534Z,101498.16
2023-05-05T14:51:31.702Z,101497.20
2023-05-05T14:54:00.191Z,101495.86
2023-05-05T14:56:29.026Z,101495.83
2023-05-05T14:58:59.462Z,101496.05
2023-05-05T15:01:28.086Z,101497.84
2023-05-05T15:03:57.490Z,101497.67
2023-05-05T15:06:28.303Z,101497.41
2023-05-05T15:08:57.521Z,101492.29
2023-05-05T15:11:26.476Z,101489.92
2023-05-05T15:13:54.873Z,101486.73
2023-05-05T15:16:23.531Z,101485.92
2023-05-05T15:18:52.295Z,101477.68
2023-05-05T15:21:21.157Z,101476.52
2023-05-05T15:23:49.412Z,101475.77
2023-05-05T15:26:17.968Z,101475.09
2023-05-05T15:28:48.200Z,101474.59
2023-05-05T15:31:18.670Z,101478.06
2023-05-05T15:33:48.761Z,101477.14
2023-05-05T15:36:22.736Z,101476.39
2023-05-05T15:38:51.464Z,101477.04
2023-05-05T15:41:20.137Z,101469.40
2023-05-05T15:43:48.338Z,101467.27
2023-05-05T15:46:16.741Z,101465.57
2023-05-05T15:48:45.017Z,101464.23
2023-05-05T15:51:13.381Z,101456.74
2023-05-05T15:53:41.797Z,101459.07
2023-05-05T15:56:11.834Z,101458.36
2023-05-05T15:58:41.272Z,101454.84
2023-05-05T16:01:09.593Z,101453.66
2023-05-05T16:03:37.921Z,101452.45
2023-05-05T16:06:06.735Z,101450.34
2023-05-05T16:08:35.384Z,101448.36
2023-05-05T16:11:04.756Z,101450.79
2023-05-05T16:13:33.120Z,101447.20
2023-05-05T16:16:01.617Z,101447.89
2023-05-05T16:18:29.963Z,101447.67
2023-05-05T16:20:58.432Z,101447.45
2023-05-05T16:23:27.193Z,101445.55
2023-05-05T16:25:56.911Z,101444.67
2023-05-05T16:28:25.153Z,101445.12
2023-05-05T16:30:53.595Z,101446.22
2023-05-05T16:33:22.732Z,101450.88
2023-05-05T16:35:50.971Z,101451.55
2023-05-05T16:38:19.425Z,101452.88
2023-05-05T16:40:47.917Z,101456.43
2023-05-05T16:43:16.175Z,101458.03
2023-05-05T16:45:44.711Z,101456.41
2023-05-05T16:48:14.921Z,101456.10
2023-05-05T16:50:43.670Z,101455.81
2023-05-05T16:53:12.259Z,101453.31
2023-05-05T16:55:40.757Z,101458.87
2023-05-05T16:58:09.241Z,101460.79
2023-05-05T17:00:37.768Z,101463.06
2023-05-05T17:03:06.554Z,101464.17
2023-05-05T17:05:35.462Z,101466.71
2023-05-05T17:08:04.627Z,101473.80
2023-05-05T17:10:32.942Z,101471.89
2023-05-05T17:13:01.264Z,101476.60
2023-05-05T17:15:29.466Z,101475.27
2023-05-05T17:17:57.807Z,101476.79
2023-05-05T17:20:26.488Z,101477.04
2023-05-05T17:22:54.796Z,101478.35
2023-05-05T17:25:25.821Z,101479.77
2023-05-05T17:27:55.184Z,101478.86
2023-05-05T17:30:23.904Z,101479.98
2023-05-05T17:32:52.781Z,101481.08
2023-05-05T17:35:21.381Z,101482.31
2023-05-05T17:37:49.901Z,101483.25
2023-05-05T17:40:18.334Z,101484.27
2023-05-05T17:42:46.876Z,101489.83
2023-05-05T17:45:15.564Z,101490.46
2023-05-05T17:47:43.949Z,101489.03
2023-05-05T17:50:12.227Z,101498.99
2023-05-05T17:52:41.568Z,101501.73
2023-05-05T17:55:10.469Z,101505.30
2023-05-05T18:01:24.302Z,101511.13
2023-05-05T18:03:53.170Z,101516.84
2023-05-05T18:06:21.998Z,101519.82
2023-05-05T18:08:50.433Z,101527.52
2023-05-05T18:11:21.376Z,101531.02
2023-05-05T18:13:49.662Z,101534.34
2023-05-05T18:16:18.137Z,101537.96
2023-05-05T18:18:46.737Z,101540.16
2023-05-05T18:21:15.285Z,101541.13
2023-05-05T18:23:43.793Z,101542.13
2023-05-05T18:26:12.282Z,101538.02
2023-05-05T18:28:40.684Z,101543.39
2023-05-05T18:31:09.267Z,101541.38
2023-05-05T18:33:40.496Z,101548.45
2023-05-05T18:36:11.013Z,101550.64
2023-05-05T18:38:39.708Z,101548.08
2023-05-05T18:41:08.553Z,101553.03
2023-05-05T18:43:37.112Z,101554.98
2023-05-05T18:46:05.493Z,101555.40
2023-05-05T18:48:33.850Z,101554.30
2023-05-05T18:51:05.866Z,101560.65
2023-05-05T18:53:34.596Z,101565.49
2023-05-05T18:56:03.058Z,101568.75
2023-05-05T18:58:32.037Z,101567.09
2023-05-05T19:01:00.427Z,101566.63
2023-05-05T19:03:29.021Z,101568.98
2023-05-05T19:05:58.742Z,101567.11
2023-05-05T19:08:27.352Z,101564.91
2023-05-05T19:10:56.688Z,101561.99
2023-05-05T19:13:25.111Z,101566.43
2023-05-05T19:15:57.710Z,101565.06
2023-05-05T19:18:27.025Z,101570.34
2023-05-05T19:20:55.381Z,101570.02
2023-05-05T19:23:23.805Z,101576.35
2023-05-05T19:25:53.060Z,101574.65
2023-05-05T19:28:21.573Z,101577.84
2023-05-05T19:30:49.884Z,101581.55
2023-05-05T19:33:18.119Z,101580.89
2023-05-05T19:35:46.690Z,101580.05
2023-05-05T19:38:15.992Z,101577.98
2023-05-05T19:40:44.278Z,101582.04
2023-05-05T19:43:12.709Z,101579.80
2023-05-05T19:45:41.319Z,101582.46
2023-05-05T19:48:09.616Z,101579.52
2023-05-05T19:50:38.060Z,101579.37
2023-05-05T19:53:06.448Z,101580.98
2023-05-05T19:55:34.798Z,101583.79
2023-05-05T19:58:03.179Z,101585.57
2023-05-05T20:00:31.730Z,101590.13
2023-05-05T20:03:00.377Z,101590.84
2023-05-05T20:05:28.902Z,101585.76
2023-05-05T20:07:57.366Z,101586.31
2023-05-05T20:10:26.813Z,101584.58
2023-05-05T20:12:55.049Z,101586.88
2023-05-05T20:15:23.326Z,101587.94
2023-05-05T20:17:51.678Z,101583.77
2023-05-05T20:20:22.218Z,101586.05
2023-05-05T20:22:50.634Z,101588.88
2023-05-05T20:25:19.011Z,101588.54
2023-05-05T20:27:47.850Z,101590.66
2023-05-05T20:30:16.755Z,101595.92
2023-05-05T20:32:45.543Z,101596.11
2023-05-05T20:35:13.720Z,101595.25
2023-05-05T20:37:42.057Z,101597.53
2023-05-05T20:40:11.270Z,101597.23
2023-05-05T20:42:39.822Z,101599.33
2023-05-05T20:45:08.390Z,101593.94
2023-05-05T20:47:36.895Z,101594.13
2023-05-05T20:50:06.146Z,101596.76
2023-05-05T20:52:35.168Z,101598.31
2023-05-05T20:55:03.710Z,101597.80
2023-05-05T20:57:32.098Z,101602.51
2023-05-05T21:00:00.438Z,101599.20
2023-05-05T21:02:28.807Z,101600.25
2023-05-05T21:05:02.578Z,101602.19
2023-05-05T21:07:34.505Z,101598.34
2023-05-05T21:10:04.792Z,101599.40
2023-05-05T21:12:34.603Z,101603.08
2023-05-05T21:15:03.570Z,101606.91
2023-05-05T21:17:32.259Z,101611.46
2023-05-05T21:20:00.809Z,101611.30
2023-05-05T21:22:29.218Z,101611.11
2023-05-05T21:25:14.412Z,101609.88
2023-05-05T21:27:43.042Z,101613.70
2023-05-05T21:30:11.600Z,101618.06
2023-05-05T21:32:41.771Z,101615.96
2023-05-05T21:35:10.848Z,101613.19
2023-05-05T21:37:39.834Z,101611.08
2023-05-05T21:40:13.766Z,101613.69
2023-05-05T21:42:43.913Z,101613.52
2023-05-05T21:45:13.255Z,101611.95
2023-05-05T21:47:42.649Z,101612.30
2023-05-05T21:50:12.630Z,101610.73
2023-05-05T21:52:41.611Z,101614.58
2023-05-05T21:55:11.538Z,101615.45
2023-05-05T21:57:39.809Z,101615.27
2023-05-05T22:00:09.214Z,101617.17
2023-05-05T22:02:47.382Z,101619.27
2023-05-05T22:05:16.445Z,101622.04
2023-05-05T22:07:45.167Z,101618.70
2023-05-05T22:10:13.479Z,101619.38
2023-05-05T22:12:42.026Z,101618.67
2023-05-05T22:15:11.513Z,101619.90
2023-05-05T22:17:40.342Z,101620.60
2023-05-05T22:20:09.464Z,101621.46
2023-05-05T22:22:38.474Z,101620.92
2023-05-05T22:25:07.491Z,101625.27
2023-05-05T22:27:36.170Z,101623.16
2023-05-05T22:30:04.944Z,101621.73
2023-05-05T22:32:33.777Z,101620.65
2023-05-05T22:35:02.301Z,101624.27
2023-05-05T22:37:30.601Z,101623.20
2023-05-05T22:40:00.483Z,101623.17
2023-05-05T22:42:29.852Z,101629.74
2023-05-05T22:44:58.256Z,101622.73
2023-05-05T22:47:26.925Z,101624.61
2023-05-05T22:49:55.344Z,101625.65
2023-05-05T22:52:25.692Z,101626.85
2023-05-05T22:54:54.140Z,101625.80
2023-05-05T22:57:22.721Z,101627.88
2023-05-05T22:59:51.510Z,101627.69
2023-05-05T23:02:19.947Z,101628.53
2023-05-05T23:04:48.612Z,101629.05
2023-05-05T23:07:17.004Z,101625.71
2023-05-05T23:09:47.111Z,101622.72
2023-05-05T23:12:15.836Z,101620.59
2023-05-05T23:14:44.821Z,101626.99
2023-05-05T23:17:13.610Z,101623.13
2023-05-05T23:19:42.275Z,101628.86
2023-05-05T23:22:10.948Z,101628.83
2023-05-05T23:24:39.985Z,101630.17
2023-05-05T23:27:08.495Z,101630.14
2023-05-05T23:29:37.064Z,101630.26
2023-05-05T23:32:06.595Z,101631.63
2023-05-05T23:34:35.213Z,101634.40
2023-05-05T23:37:06.058Z,101633.63
2023-05-05T23:39:35.497Z,101636.70
2023-05-05T23:42:04.149Z,101641.52
2023-05-05T23:44:33.133Z,101639.20
2023-05-05T23:47:01.872Z,101638.96
2023-05-05T23:49:30.602Z,101644.61
2023-05-05T23:51:59.267Z,101644.77
2023-05-05T23:54:27.816Z,101643.66
2023-05-05T23:56:56.141Z,101644.64
2023-05-05T23:59:24.571Z,101647.04
